Newcastle, UT (84756)

4:02 PM MDT on August 20, 2014 (GMT -0600)
RAWS ENTERPRISE UT US | Change Station
CLOSE
Current Station
Personal Weather Station
Location: Enterprise, UT
Elevation: 5398 ft
Nearby Weather Stations

Elev 5398 ft 37.56 °N, 113.72 °W | Updated 59 minutes ago

Clear
Clear
73 °F
Feels Like 77 °F
N
12
Wind Variable Wind from SW
Gusts 22.0 mph

Today
High -- | Low -- °F
--% Chance of Precip.
Yesterday
High -- | Low -- °F
Precip. -- in
6:54 AM 8:21 PM
Waning Crescent, 19% visible
Pressure 29.87 in
Visibility 10.0 miles
Clouds Clear
Heat Index 77 °F
Dew Point 50 °F
Humidity 44%
Rainfall 0.01 in
Snow Depth Not available.
UV 8 out of 12
Pollen 6.70 out of 12
Air Quality Not available.
Flu Activity Not available.
METAR KCDC 202153Z AUTO 22014G20KT 10SM CLR 26/09 A3008 RMK AO2 LTG DSNT NE AND E SLP115 T02560089

More Conditions Fewer Conditions

Pressure 29.87 in
Visibility 10.0 miles
Clouds Clear
Heat Index 77 °F
Dew Point 50 °F
Humidity 44%
Rainfall 0.01 in
Snow Depth Not available.
UV 8 out of 12
Pollen 6.70 out of 12
Air Quality Not available.
Flu Activity Not available.
METAR KCDC 202153Z AUTO 22014G20KT 10SM CLR 26/09 A3008 RMK AO2 LTG DSNT NE AND E SLP115 T02560089

More Conditions Fewer Conditions

Nowcast | as of 3:15 PM MDT on August 20, 2014

Scattered showers and thunderstorms continue to develop over mainly the mountains of southwest Utah. Strongest storms at 315 PM were over Beaver County and southern Millard County. Storms are moving northeast at about 15-20 mph and may produce strong gusty outflow winds...dangerous lightning and brief heavy rain.

×

10-Day Weather Forecast

Almanac

Astronomy

Aug. 20, 2014 Rise Set
Actual Time 6:54 AM MDT 8:21 PM MDT
Civil Twilight 6:27 AM MDT 8:48 PM MDT
Nautical Twilight 5:53 AM MDT 9:21 PM MDT
Astronomical Twilight 5:19 AM MDT 9:56 PM MDT
Moon 2:39 AM MDT 5:07 PM MDT
Length of Visible Light 14h 21m
Length of Day
13h 26m
Tomorrow will be 2m 13s shorter.
Waning Crescent, 19% of the Moon is Illuminated
Today
Waning Crescent
Aug 25
New
Sep 2
First Quarter
Sep 8
Full
Sep 15
Last Quarter

Today's Extremes

State Highs State Lows

Community

WunderPhotos

Upload Photos

1,745,773 photos uploaded!

Nearby

Snow Depth

Station Depth Elevation
Midway Valley 4 in 9800 ft
Long Valley Jct 0 in 7360 ft
Agua Canyon 3 in 8900 ft
Box Creek 0 in 9800 ft
Donkey Reservoir 0 in 9800 ft

Earthquake Activity

City Distance Mag. Time & Date
No recent earthquake activity has been reported nearby.
Minimum magnitude displayed is 2.5.

Coastal Water Temperatures

Place Temperature
No Stations Reporting

Nearby Weather Stations